Accueil
METAR-TAF:

METAR-TAF

Aéroports :

Euro, Pays-Bas

Plate-forme pétrolière

latitude: 51-59-52N, longitude: 3-16-30E, altitude: 18 m

Observation

Le bulletin a été fait il y a 51 minutes, à 20:55 UTC
Vent 14 kt de sud avec des rafales jusqu'à 15 kt
Température 9°C
Humidité 61%
Pression 1023 hPa
Visibilité 10 km ou plus

METAR: EHSA 232055Z AUTO 17014G15KT 9999 ///////// 09/02 Q1023 W10/H10

Heure: 23:46 (21:46 UTC)


TAF: absent

Observations et prévisions météorologiques de plus de 4000 aéroports (messages METAR et TAF).

Les stations disponibles sont représentées par des disques jaunes et rouges sur la carte.

Passer la souris dessus pour voir le nom de la station.

Cliquer dessus pour voir les observations et prévisions météorologiques.

Pour changer de carte: cliquez sur les boutons verts avec une croix noire pour zoomer, sur le bouton vert avec un tiret pour effectuer un zoom arrière, ou sur les flèches vertes pour les cartes adjacentes.


METAR-TAF: